Sligo, Ireland
Current Conditions -  °F | °C
As of 9:00 AM on Friday 31 Oct 2014 (Local Time) from EISG Reporting Station
Heavy Rain Heavy Rain  
Wind Chill: 57°   Ceiling: 1400
Heat Index: 57°   Visibility: 2mi
Dew Point: 54°   Wind: 13mph
Humidity: 88%   Direction: 230°SW
Pressure: 29.59"   Gusts: NA
Location:  54.28°N, 8.48°W
Report Text: EISG 310900Z 23011KT 3200 +RA OVC014 14/12 Q1002
Loading
Personal Weather Stations






























Interactive Weather Map
Tropical Storm Tracking
New forecast layout! Learn more

10-Day Weather Forecast

Advertisements
Track Severe Weather on mobile